createdAt,value
2022-09-15T00:00:09.086Z,88.29
2022-09-15T00:02:35.737Z,87.04
2022-09-15T00:05:02.283Z,88.09
2022-09-15T00:07:28.955Z,87.99
2022-09-15T00:09:55.526Z,88.22
2022-09-15T00:12:22.079Z,87.59
2022-09-15T00:14:48.616Z,87.39
2022-09-15T00:17:15.239Z,87.28
2022-09-15T00:19:41.776Z,87.39
2022-09-15T00:22:08.320Z,88.15
2022-09-15T00:24:35.990Z,88.06
2022-09-15T00:27:02.784Z,88.29
2022-09-15T00:29:29.378Z,88.59
2022-09-15T00:31:55.988Z,89.00
2022-09-15T00:34:22.534Z,88.56
2022-09-15T00:36:49.082Z,88.29
2022-09-15T00:39:15.655Z,88.27
2022-09-15T00:41:42.367Z,88.96
2022-09-15T00:44:36.991Z,88.98
2022-09-15T00:47:21.836Z,88.52
2022-09-15T00:49:58.792Z,88.23
2022-09-15T00:52:57.664Z,88.63
2022-09-15T00:55:32.296Z,88.90
2022-09-15T00:58:06.826Z,89.34
2022-09-15T01:00:34.529Z,89.17
2022-09-15T01:03:02.072Z,89.24
2022-09-15T01:05:34.723Z,90.20
2022-09-15T01:08:30.973Z,89.78
2022-09-15T01:10:58.001Z,90.47
2022-09-15T01:13:25.253Z,89.90
2022-09-15T01:16:31.808Z,89.41
2022-09-15T01:19:00.904Z,89.00
2022-09-15T01:21:36.600Z,89.28
2022-09-15T01:24:44.023Z,88.84
2022-09-15T01:27:42.474Z,88.88
2022-09-15T01:30:20.782Z,89.26
2022-09-15T01:33:26.556Z,89.83
2022-09-15T01:36:01.943Z,89.63
2022-09-15T01:38:55.162Z,89.20
2022-09-15T01:41:26.365Z,90.29
2022-09-15T01:44:07.102Z,90.82
2022-09-15T01:46:39.554Z,91.07
2022-09-15T01:49:10.379Z,91.39
2022-09-15T01:51:39.638Z,92.27
2022-09-15T01:54:07.717Z,93.04
2022-09-15T01:56:37.321Z,92.28
2022-09-15T01:59:04.148Z,93.09
2022-09-15T02:01:44.662Z,92.92
2022-09-15T02:04:29.698Z,93.29
2022-09-15T02:07:31.231Z,93.46
2022-09-15T02:10:32.731Z,92.79
2022-09-15T02:13:39.204Z,93.47
2022-09-15T02:16:16.636Z,93.25
2022-09-15T02:18:58.742Z,92.81
2022-09-15T02:21:34.724Z,93.04
2022-09-15T02:24:07.768Z,93.39
2022-09-15T02:26:37.206Z,94.11
2022-09-15T02:29:07.555Z,93.88
2022-09-15T02:31:38.123Z,94.83
2022-09-15T02:34:11.042Z,94.92
2022-09-15T02:36:38.242Z,95.43
2022-09-15T02:39:08.598Z,95.81
2022-09-15T02:41:36.630Z,95.07
2022-09-15T02:44:03.825Z,95.04
2022-09-15T02:46:30.462Z,94.88
2022-09-15T02:48:57.071Z,95.51
2022-09-15T02:51:23.723Z,95.79
2022-09-15T02:53:50.480Z,96.60
2022-09-15T02:56:18.140Z,95.39
2022-09-15T02:58:45.068Z,95.21
2022-09-15T03:01:15.765Z,94.90
2022-09-15T03:03:44.398Z,95.15
2022-09-15T03:06:16.681Z,94.93
2022-09-15T03:08:50.934Z,94.48
2022-09-15T03:11:20.517Z,94.18
2022-09-15T03:13:47.931Z,94.50
2022-09-15T03:16:16.318Z,94.74
2022-09-15T03:18:43.018Z,94.26
2022-09-15T03:21:13.642Z,94.27
2022-09-15T03:23:41.624Z,93.94
2022-09-15T03:26:09.505Z,94.44
2022-09-15T03:28:37.286Z,94.25
2022-09-15T03:31:04.626Z,94.39
2022-09-15T03:33:31.644Z,94.59
2022-09-15T03:35:58.839Z,94.41
2022-09-15T03:38:25.933Z,94.66
2022-09-15T03:41:01.681Z,93.86
2022-09-15T03:43:30.080Z,94.11
2022-09-15T03:45:56.823Z,94.01
2022-09-15T03:48:24.529Z,94.93
2022-09-15T03:50:51.359Z,94.68
2022-09-15T03:53:18.568Z,95.34
2022-09-15T03:55:45.687Z,95.33
2022-09-15T03:58:16.285Z,94.36
2022-09-15T04:00:43.065Z,94.85
2022-09-15T04:03:09.693Z,95.00
2022-09-15T04:05:36.680Z,94.81
2022-09-15T04:08:03.513Z,94.73
2022-09-15T04:10:30.482Z,94.02
2022-09-15T04:12:57.783Z,94.64
2022-09-15T04:15:24.424Z,93.89
2022-09-15T04:17:50.978Z,93.90
2022-09-15T04:20:17.548Z,93.64
2022-09-15T04:22:44.834Z,93.40
2022-09-15T04:25:11.654Z,93.77
2022-09-15T04:27:38.706Z,93.82
2022-09-15T04:30:07.761Z,93.80
2022-09-15T04:32:35.791Z,93.56
2022-09-15T04:35:04.067Z,92.75
2022-09-15T04:37:31.263Z,93.29
2022-09-15T04:39:58.012Z,93.12
2022-09-15T04:42:24.820Z,93.13
2022-09-15T04:44:51.378Z,92.87
2022-09-15T04:47:18.035Z,93.06
2022-09-15T04:49:44.583Z,93.00
2022-09-15T04:52:11.183Z,92.39
2022-09-15T04:54:37.719Z,91.79
2022-09-15T04:57:04.475Z,91.70
2022-09-15T04:59:30.965Z,91.82
2022-09-15T05:01:57.584Z,90.99
2022-09-15T05:04:24.194Z,91.27
2022-09-15T05:06:50.742Z,91.59
2022-09-15T05:09:17.414Z,91.76
2022-09-15T05:11:43.922Z,91.18
2022-09-15T05:14:11.499Z,90.34
2022-09-15T05:16:38.220Z,90.47
2022-09-15T05:19:04.855Z,89.57
2022-09-15T05:21:32.154Z,90.01
2022-09-15T05:23:58.801Z,89.10
2022-09-15T05:26:29.717Z,89.46
2022-09-15T05:28:57.112Z,88.85
2022-09-15T05:31:29.178Z,88.05
2022-09-15T05:33:56.018Z,89.06
2022-09-15T05:36:25.319Z,88.51
2022-09-15T05:38:58.659Z,89.16
2022-09-15T05:41:26.679Z,89.18
2022-09-15T05:43:55.129Z,89.94
2022-09-15T05:46:21.749Z,89.47
2022-09-15T05:48:48.441Z,89.22
2022-09-15T05:51:15.317Z,88.47
2022-09-15T05:53:42.058Z,88.78
2022-09-15T05:56:12.113Z,88.61
2022-09-15T05:58:40.782Z,88.73
2022-09-15T06:01:13.907Z,88.55
2022-09-15T06:03:40.834Z,89.63
2022-09-15T06:06:07.812Z,90.22
2022-09-15T06:08:36.783Z,89.48
2022-09-15T06:11:10.349Z,89.99
2022-09-15T06:13:37.648Z,90.58
2022-09-15T06:16:09.839Z,90.93
2022-09-15T06:18:37.986Z,91.08
2022-09-15T06:21:10.586Z,91.85
2022-09-15T06:23:37.999Z,91.14
2022-09-15T06:26:06.788Z,90.87
2022-09-15T06:28:33.837Z,91.92
2022-09-15T06:31:00.615Z,92.55
2022-09-15T06:33:27.579Z,91.86
2022-09-15T06:35:54.482Z,91.12
2022-09-15T06:38:21.089Z,90.64
2022-09-15T06:40:58.363Z,90.75
2022-09-15T06:43:25.770Z,91.22
2022-09-15T06:45:52.776Z,90.83
2022-09-15T06:48:24.780Z,90.03
2022-09-15T06:50:56.093Z,89.57
2022-09-15T06:53:22.686Z,89.47
2022-09-15T06:55:49.829Z,89.33
2022-09-15T06:58:16.725Z,88.88
2022-09-15T07:00:43.327Z,88.11
2022-09-15T07:03:09.968Z,87.27
2022-09-15T07:05:36.543Z,86.68
2022-09-15T07:08:03.265Z,86.88
2022-09-15T07:10:29.950Z,85.65
2022-09-15T07:12:56.547Z,85.72
2022-09-15T07:15:24.922Z,87.22
2022-09-15T07:17:51.461Z,86.30
2022-09-15T07:20:17.980Z,84.43
2022-09-15T07:22:44.708Z,84.09
2022-09-15T07:25:11.218Z,83.83
2022-09-15T07:27:37.741Z,85.01
2022-09-15T07:30:08.489Z,83.52
2022-09-15T07:32:35.023Z,82.91
2022-09-15T07:35:02.334Z,82.09
2022-09-15T07:37:28.941Z,80.88
2022-09-15T07:39:55.576Z,81.68
2022-09-15T07:42:22.163Z,82.00
2022-09-15T07:44:48.686Z,82.63
2022-09-15T07:47:15.227Z,80.09
2022-09-15T07:49:42.211Z,81.24
2022-09-15T07:52:09.021Z,81.44
2022-09-15T07:54:35.743Z,80.59
2022-09-15T07:57:02.391Z,80.47
2022-09-15T07:59:29.028Z,80.81
2022-09-15T08:01:55.635Z,78.18
2022-09-15T08:04:22.199Z,76.74
2022-09-15T08:06:48.839Z,75.65
2022-09-15T08:09:17.691Z,74.38
2022-09-15T08:11:44.439Z,74.40
2022-09-15T08:14:11.034Z,73.57
2022-09-15T08:16:38.599Z,74.57
2022-09-15T08:19:05.591Z,75.62
2022-09-15T08:21:32.139Z,76.18
2022-09-15T08:23:59.972Z,78.76
2022-09-15T08:26:28.179Z,77.54
2022-09-15T08:28:55.075Z,77.32
2022-09-15T08:31:24.015Z,77.23
2022-09-15T08:33:53.037Z,78.13
2022-09-15T08:36:20.172Z,79.82
2022-09-15T08:38:47.446Z,78.22
2022-09-15T08:41:29.496Z,77.96
2022-09-15T08:44:02.674Z,78.84
2022-09-15T08:46:38.272Z,76.68
2022-09-15T08:49:30.771Z,77.62
2022-09-15T08:52:13.169Z,77.25
2022-09-15T08:54:39.779Z,75.48
2022-09-15T08:57:10.113Z,75.54
2022-09-15T08:59:40.005Z,75.56
2022-09-15T09:02:12.700Z,74.08
2022-09-15T09:05:02.406Z,73.78
2022-09-15T09:07:49.564Z,71.43
2022-09-15T09:10:25.607Z,71.84
2022-09-15T09:13:00.797Z,71.31
2022-09-15T09:15:27.317Z,70.12
2022-09-15T09:18:32.550Z,69.34
2022-09-15T09:21:13.566Z,68.72
2022-09-15T09:23:54.782Z,68.47
2022-09-15T09:26:21.456Z,67.76
2022-09-15T09:28:55.087Z,67.22
2022-09-15T09:31:24.805Z,69.03
2022-09-15T09:34:31.868Z,68.17
2022-09-15T09:37:00.542Z,66.95
2022-09-15T09:39:28.300Z,68.72
2022-09-15T09:41:55.182Z,66.47
2022-09-15T09:44:31.927Z,67.03
2022-09-15T09:47:00.535Z,67.75
2022-09-15T09:49:42.513Z,68.17
2022-09-15T09:52:09.220Z,69.09
2022-09-15T09:54:36.031Z,69.98
2022-09-15T09:57:15.127Z,70.74
2022-09-15T09:59:42.855Z,73.34
2022-09-15T10:02:12.423Z,76.30
2022-09-15T10:04:40.537Z,77.64
2022-09-15T10:07:08.561Z,78.54
2022-09-15T10:09:37.082Z,80.00
2022-09-15T10:12:05.887Z,80.39
2022-09-15T10:14:36.675Z,80.41
2022-09-15T10:17:03.561Z,79.40
2022-09-15T10:19:33.483Z,79.71
2022-09-15T10:22:01.592Z,80.62
2022-09-15T10:24:32.654Z,79.64
2022-09-15T10:32:28.680Z,80.27
2022-09-15T10:35:21.242Z,80.89
2022-09-15T10:37:59.908Z,79.72
2022-09-15T10:40:44.474Z,78.19
2022-09-15T10:43:32.375Z,78.15
2022-09-15T10:46:07.810Z,76.25
2022-09-15T10:48:52.201Z,75.84
2022-09-15T10:51:31.225Z,75.04
2022-09-15T10:54:26.443Z,74.59
2022-09-15T10:57:01.882Z,74.95
2022-09-15T10:59:43.189Z,74.04
2022-09-15T11:02:31.572Z,74.80
2022-09-15T11:05:28.599Z,74.41
2022-09-15T11:08:25.605Z,76.05
2022-09-15T11:10:58.002Z,73.93
2022-09-15T11:13:59.538Z,75.68
2022-09-15T11:16:31.264Z,75.68
2022-09-15T11:19:30.410Z,76.06
2022-09-15T11:22:12.421Z,75.55
2022-09-15T11:24:49.892Z,75.69
2022-09-15T11:27:25.349Z,75.41
2022-09-15T11:30:15.941Z,73.20
2022-09-15T11:33:04.622Z,72.38
2022-09-15T11:35:37.332Z,71.26
2022-09-15T11:38:14.049Z,69.05
2022-09-15T11:41:31.779Z,69.23
2022-09-15T11:44:19.379Z,70.60
2022-09-15T11:46:51.719Z,71.30
2022-09-15T11:49:26.749Z,72.81
2022-09-15T11:52:01.470Z,73.46
2022-09-15T11:54:41.323Z,74.00
2022-09-15T11:57:20.042Z,77.64
2022-09-15T11:59:52.035Z,77.75
2022-09-15T12:02:43.516Z,78.57
2022-09-15T12:05:29.566Z,77.46
2022-09-15T12:08:02.589Z,75.96
2022-09-15T12:10:44.686Z,74.71
2022-09-15T12:13:18.023Z,74.86
2022-09-15T12:15:45.530Z,75.63
2022-09-15T12:18:39.857Z,75.30
2022-09-15T12:21:12.527Z,77.50
2022-09-15T12:23:58.047Z,77.31
2022-09-15T12:26:26.922Z,78.29
2022-09-15T12:28:54.632Z,78.25
2022-09-15T12:31:29.551Z,78.85
2022-09-15T12:34:00.590Z,79.11
2022-09-15T12:36:41.306Z,79.30
2022-09-15T12:39:36.627Z,79.73
2022-09-15T12:42:03.213Z,79.08
2022-09-15T12:44:47.673Z,79.95
2022-09-15T12:47:41.692Z,78.61
2022-09-15T12:50:14.294Z,78.17
2022-09-15T12:53:03.580Z,77.00
2022-09-15T12:55:35.238Z,75.43
2022-09-15T12:58:14.774Z,74.81
2022-09-15T13:01:06.850Z,75.02
2022-09-15T13:06:21.279Z,69.91
2022-09-15T13:09:01.560Z,71.03
2022-09-15T13:11:37.566Z,72.14
2022-09-15T13:14:04.329Z,74.22
2022-09-15T13:16:59.522Z,73.24
2022-09-15T13:19:44.505Z,73.24
2022-09-15T13:22:10.967Z,72.97
2022-09-15T13:24:57.773Z,74.05
2022-09-15T13:28:08.844Z,72.54
2022-09-15T13:31:07.635Z,72.42
2022-09-15T13:40:27.344Z,67.66
2022-09-15T13:42:57.668Z,66.79
2022-09-15T13:45:54.117Z,66.85
2022-09-15T13:48:39.820Z,65.80
2022-09-15T13:51:23.683Z,64.38
2022-09-15T13:53:59.952Z,64.19
2022-09-15T13:56:35.568Z,63.30
2022-09-15T13:59:11.900Z,64.07
2022-09-15T14:01:42.537Z,63.68
2022-09-15T14:04:16.754Z,62.10
2022-09-15T14:06:49.994Z,62.35
2022-09-15T14:09:21.675Z,64.09
2022-09-15T14:11:52.867Z,65.61
2022-09-15T14:14:36.368Z,65.48
2022-09-15T14:17:04.184Z,66.06
2022-09-15T14:19:38.899Z,66.60
2022-09-15T14:22:17.876Z,67.31
2022-09-15T14:24:44.967Z,67.41
2022-09-15T14:27:13.054Z,67.84
2022-09-15T14:29:42.573Z,68.58
2022-09-15T14:32:15.130Z,69.88
2022-09-15T14:34:43.278Z,71.15
2022-09-15T14:37:20.946Z,72.96
2022-09-15T14:39:56.621Z,73.00
2022-09-15T14:42:29.625Z,74.11
2022-09-15T14:48:02.805Z,76.39
2022-09-15T14:50:33.258Z,74.67
2022-09-15T14:53:06.607Z,76.73
2022-09-15T14:55:57.977Z,77.93
2022-09-15T14:58:27.442Z,78.11
2022-09-15T15:00:59.382Z,76.75
2022-09-15T15:03:47.833Z,77.13
2022-09-15T15:06:29.823Z,78.92
2022-09-15T15:09:23.927Z,79.03
2022-09-15T15:11:53.118Z,79.53
2022-09-15T15:14:20.094Z,80.48
2022-09-15T15:17:02.093Z,81.59
2022-09-15T15:19:42.415Z,81.39
2022-09-15T15:22:11.911Z,80.97
2022-09-15T15:24:46.168Z,81.85
2022-09-15T15:27:34.378Z,82.07
2022-09-15T15:30:32.020Z,83.02
2022-09-15T15:33:00.095Z,82.64
2022-09-15T15:35:27.558Z,82.63
2022-09-15T15:38:20.391Z,82.10
2022-09-15T15:40:47.251Z,82.39
2022-09-15T15:43:13.791Z,84.79
2022-09-15T15:46:00.740Z,84.88
2022-09-15T15:48:32.664Z,84.65
2022-09-15T15:51:04.761Z,85.56
2022-09-15T15:53:31.403Z,92.31
2022-09-15T15:55:59.622Z,89.35
2022-09-15T15:58:26.940Z,90.73
2022-09-15T16:00:56.465Z,90.98
2022-09-15T16:03:24.911Z,90.43
2022-09-15T16:05:53.993Z,90.36
2022-09-15T16:08:40.107Z,89.88
2022-09-15T16:11:09.903Z,88.07
2022-09-15T16:13:36.473Z,88.61
2022-09-15T16:16:13.998Z,87.70
2022-09-15T16:18:40.543Z,87.25
2022-09-15T16:21:07.117Z,86.57
2022-09-15T16:23:33.891Z,87.57
2022-09-15T16:26:03.033Z,86.86
2022-09-15T16:28:30.062Z,86.39
2022-09-15T16:30:57.287Z,86.63
2022-09-15T16:33:25.119Z,85.76
2022-09-15T16:36:03.735Z,85.98
2022-09-15T16:38:30.512Z,86.63
2022-09-15T16:40:57.291Z,86.67
2022-09-15T16:43:23.871Z,87.04
2022-09-15T16:45:51.781Z,87.26
2022-09-15T16:48:18.976Z,87.50
2022-09-15T16:50:56.025Z,88.45
2022-09-15T16:53:33.342Z,88.84
2022-09-15T16:55:59.894Z,87.16
2022-09-15T16:58:26.561Z,87.69
2022-09-15T17:00:53.239Z,87.84
2022-09-15T17:03:24.654Z,86.72
2022-09-15T17:05:56.256Z,85.89
2022-09-15T17:08:27.220Z,86.22
2022-09-15T17:10:56.327Z,86.18
2022-09-15T17:13:29.344Z,85.47
2022-09-15T17:15:58.252Z,86.32
2022-09-15T17:18:25.894Z,86.17
2022-09-15T17:20:52.833Z,85.98
2022-09-15T17:23:23.377Z,86.85
2022-09-15T17:25:52.894Z,87.23
2022-09-15T17:28:22.359Z,88.02
2022-09-15T17:30:56.083Z,88.03
2022-09-15T17:33:23.445Z,89.53
2022-09-15T17:35:50.132Z,89.82
2022-09-15T17:38:20.173Z,90.07
2022-09-15T17:40:48.685Z,89.42
2022-09-15T17:43:19.827Z,89.15
2022-09-15T17:45:47.345Z,89.00
2022-09-15T17:48:13.985Z,88.86
2022-09-15T17:50:41.910Z,87.97
2022-09-15T17:53:15.900Z,87.88
2022-09-15T17:55:42.974Z,88.07
2022-09-15T17:58:10.272Z,88.71
2022-09-15T18:00:39.348Z,89.65
2022-09-15T18:03:16.254Z,90.19
2022-09-15T18:05:42.899Z,89.34
2022-09-15T18:08:09.849Z,89.95
2022-09-15T18:10:37.322Z,89.61
2022-09-15T18:13:05.542Z,89.95
2022-09-15T18:15:34.562Z,89.70
2022-09-15T18:18:04.356Z,90.56
2022-09-15T18:20:32.928Z,90.56
2022-09-15T18:23:00.234Z,90.66
2022-09-15T18:25:32.738Z,91.57
2022-09-15T18:28:00.301Z,90.61
2022-09-15T18:30:29.489Z,89.49
2022-09-15T18:32:56.338Z,90.49
2022-09-15T18:35:24.065Z,90.56
2022-09-15T18:37:57.953Z,91.51
2022-09-15T18:40:25.544Z,90.80
2022-09-15T18:42:52.573Z,90.07
2022-09-15T18:45:19.903Z,89.65
2022-09-15T18:47:49.114Z,90.24
2022-09-15T18:50:17.376Z,90.18
2022-09-15T18:52:44.522Z,91.07
2022-09-15T18:55:17.511Z,90.78
2022-09-15T18:57:44.632Z,91.95
2022-09-15T19:00:16.890Z,92.80
2022-09-15T19:02:44.036Z,92.86
2022-09-15T19:05:17.178Z,92.57
2022-09-15T19:07:44.903Z,92.33
2022-09-15T19:10:14.378Z,92.15
2022-09-15T19:12:41.198Z,92.16
2022-09-15T19:15:11.410Z,92.40
2022-09-15T19:17:42.034Z,92.59
2022-09-15T19:20:10.885Z,92.27
2022-09-15T19:22:38.187Z,93.29
2022-09-15T19:25:06.375Z,92.11
2022-09-15T19:27:33.650Z,92.65
2022-09-15T19:30:01.074Z,91.85
2022-09-15T19:32:27.800Z,91.44
2022-09-15T19:34:54.494Z,91.37
2022-09-15T19:37:22.179Z,90.25
2022-09-15T19:39:49.273Z,89.42
2022-09-15T19:44:42.675Z,89.54
2022-09-15T19:47:09.442Z,89.06
2022-09-15T19:49:36.076Z,89.00
2022-09-15T19:52:02.893Z,86.89
2022-09-15T19:54:30.630Z,86.91
2022-09-15T19:56:57.495Z,87.06
2022-09-15T19:59:28.774Z,86.58
2022-09-15T20:01:57.630Z,87.46
2022-09-15T20:07:09.217Z,87.65
2022-09-15T20:09:36.267Z,86.05
2022-09-15T20:12:03.428Z,86.09
2022-09-15T20:14:31.401Z,86.52
2022-09-15T20:17:01.154Z,86.23
2022-09-15T20:19:28.487Z,85.58
2022-09-15T20:21:55.042Z,85.24
2022-09-15T20:24:22.553Z,84.82
2022-09-15T20:26:49.526Z,84.74
2022-09-15T20:29:16.445Z,84.51
2022-09-15T20:31:43.547Z,84.12
2022-09-15T20:34:10.068Z,84.57
2022-09-15T20:36:38.906Z,84.28
2022-09-15T20:39:10.464Z,84.33
2022-09-15T20:41:37.550Z,84.18
2022-09-15T20:44:05.969Z,84.88
2022-09-15T20:46:32.614Z,84.62
2022-09-15T20:48:59.168Z,85.41
2022-09-15T20:51:29.530Z,84.72
2022-09-15T20:53:57.613Z,84.90
2022-09-15T20:56:26.742Z,84.39
2022-09-15T20:58:55.005Z,84.35
2022-09-15T21:01:24.975Z,84.98
2022-09-15T21:03:52.114Z,85.84
2022-09-15T21:06:20.995Z,86.09
2022-09-15T21:08:48.677Z,86.92
2022-09-15T21:11:17.582Z,86.72
2022-09-15T21:13:44.555Z,86.37
2022-09-15T21:16:15.157Z,86.77
2022-09-15T21:18:43.690Z,87.71
2022-09-15T21:21:23.579Z,87.73
2022-09-15T21:23:51.886Z,88.78
2022-09-15T21:26:23.844Z,88.75
2022-09-15T21:28:51.171Z,87.67
2022-09-15T21:31:23.643Z,87.59
2022-09-15T21:33:51.622Z,87.43
2022-09-15T21:36:23.198Z,87.04
2022-09-15T21:38:51.554Z,87.32
2022-09-15T21:41:21.594Z,87.02
2022-09-15T21:43:49.889Z,87.31
2022-09-15T21:46:18.849Z,88.70
2022-09-15T21:48:49.671Z,88.46
2022-09-15T21:51:24.716Z,88.03
2022-09-15T21:53:54.494Z,88.55
2022-09-15T21:56:22.737Z,88.41
2022-09-15T21:58:49.734Z,88.91
2022-09-15T22:01:22.056Z,88.33
2022-09-15T22:03:53.925Z,88.96
2022-09-15T22:06:22.305Z,89.68
2022-09-15T22:08:49.143Z,88.80
2022-09-15T22:11:15.772Z,88.88
2022-09-15T22:13:43.789Z,88.18
2022-09-15T22:16:19.741Z,88.70
2022-09-15T22:18:46.503Z,88.53
2022-09-15T22:21:17.359Z,88.08
2022-09-15T22:23:45.211Z,88.06
2022-09-15T22:26:15.352Z,88.57
2022-09-15T22:28:42.167Z,87.98
2022-09-15T22:31:10.881Z,88.94
2022-09-15T22:33:40.926Z,89.58
2022-09-15T22:36:12.527Z,88.61
2022-09-15T22:38:39.265Z,88.37
2022-09-15T22:41:09.208Z,86.91
2022-09-15T22:43:36.867Z,87.67
2022-09-15T22:46:04.036Z,87.40
2022-09-15T22:48:30.771Z,87.37
2022-09-15T22:50:57.375Z,87.29
2022-09-15T22:53:24.013Z,87.59
2022-09-15T22:55:51.489Z,88.94
2022-09-15T22:58:18.080Z,88.12
2022-09-15T23:00:45.002Z,88.03
2022-09-15T23:03:11.947Z,88.06
2022-09-15T23:05:38.619Z,88.01
2022-09-15T23:08:05.266Z,87.30
2022-09-15T23:10:32.767Z,87.25
2022-09-15T23:12:59.792Z,85.61
2022-09-15T23:15:26.417Z,86.83
2022-09-15T23:17:53.025Z,85.20
2022-09-15T23:20:19.570Z,84.88
2022-09-15T23:22:46.111Z,84.09
2022-09-15T23:25:13.000Z,84.93
2022-09-15T23:27:39.606Z,85.93
2022-09-15T23:30:06.549Z,85.54
2022-09-15T23:32:33.170Z,86.05
2022-09-15T23:34:59.735Z,85.61
2022-09-15T23:37:26.295Z,86.28
2022-09-15T23:39:52.957Z,86.42
2022-09-15T23:42:19.538Z,87.38
2022-09-15T23:44:46.293Z,87.38
2022-09-15T23:47:12.853Z,87.58
2022-09-15T23:49:39.806Z,87.09
2022-09-15T23:52:06.378Z,87.13
2022-09-15T23:54:32.929Z,86.87
2022-09-15T23:56:59.524Z,87.48
2022-09-15T23:59:26.095Z,87.47
